sensor_id;sensor_type;location;lat;lon;timestamp;temperature;humidity
24402;DHT22;12539;48.808;11.292;2023-04-15T00:01:24;8.10;99.90
24402;DHT22;12539;48.808;11.292;2023-04-15T00:03:53;8.20;99.90
24402;DHT22;12539;48.808;11.292;2023-04-15T00:06:20;8.20;99.90
24402;DHT22;12539;48.808;11.292;2023-04-15T00:08:46;8.10;99.90
24402;DHT22;12539;48.808;11.292;2023-04-15T00:11:12;8.10;99.90
24402;DHT22;12539;48.808;11.292;2023-04-15T00:13:38;8.00;99.90
24402;DHT22;12539;48.808;11.292;2023-04-15T00:16:05;7.90;99.90
24402;DHT22;12539;48.808;11.292;2023-04-15T00:18:31;7.90;99.90
24402;DHT22;12539;48.808;11.292;2023-04-15T00:20:57;7.80;99.90
24402;DHT22;12539;48.808;11.292;2023-04-15T00:23:24;7.90;99.90
24402;DHT22;12539;48.808;11.292;2023-04-15T00:25:50;8.00;99.90
24402;DHT22;12539;48.808;11.292;2023-04-15T00:28:16;8.10;99.90
24402;DHT22;12539;48.808;11.292;2023-04-15T00:30:42;8.20;99.90
24402;DHT22;12539;48.808;11.292;2023-04-15T00:33:08;8.20;99.90
24402;DHT22;12539;48.808;11.292;2023-04-15T00:35:34;8.30;99.90
24402;DHT22;12539;48.808;11.292;2023-04-15T00:38:02;8.40;99.90
24402;DHT22;12539;48.808;11.292;2023-04-15T00:40:27;8.40;99.90
24402;DHT22;12539;48.808;11.292;2023-04-15T00:42:53;8.40;99.90
24402;DHT22;12539;48.808;11.292;2023-04-15T00:45:19;8.40;99.90
24402;DHT22;12539;48.808;11.292;2023-04-15T00:47:45;8.40;99.90
24402;DHT22;12539;48.808;11.292;2023-04-15T00:50:11;8.50;99.90
24402;DHT22;12539;48.808;11.292;2023-04-15T00:52:37;8.50;99.90
24402;DHT22;12539;48.808;11.292;2023-04-15T00:55:04;8.50;99.90
24402;DHT22;12539;48.808;11.292;2023-04-15T00:57:51;8.50;99.90
24402;DHT22;12539;48.808;11.292;2023-04-15T01:00:17;8.50;99.90
24402;DHT22;12539;48.808;11.292;2023-04-15T01:02:44;8.50;99.90
24402;DHT22;12539;48.808;11.292;2023-04-15T01:05:10;8.50;99.90
24402;DHT22;12539;48.808;11.292;2023-04-15T01:07:36;8.50;99.90
24402;DHT22;12539;48.808;11.292;2023-04-15T01:10:03;8.50;99.90
24402;DHT22;12539;48.808;11.292;2023-04-15T01:12:31;8.50;99.90
24402;DHT22;12539;48.808;11.292;2023-04-15T01:14:58;8.50;99.90
24402;DHT22;12539;48.808;11.292;2023-04-15T01:17:24;8.50;99.90
24402;DHT22;12539;48.808;11.292;2023-04-15T01:19:50;8.50;99.90
24402;DHT22;12539;48.808;11.292;2023-04-15T01:22:17;8.50;99.90
24402;DHT22;12539;48.808;11.292;2023-04-15T01:24:54;8.50;99.90
24402;DHT22;12539;48.808;11.292;2023-04-15T01:27:21;8.50;99.90
24402;DHT22;12539;48.808;11.292;2023-04-15T01:29:47;8.50;99.90
24402;DHT22;12539;48.808;11.292;2023-04-15T01:32:12;8.50;99.90
24402;DHT22;12539;48.808;11.292;2023-04-15T01:34:38;8.50;99.90
24402;DHT22;12539;48.808;11.292;2023-04-15T01:37:03;8.50;99.90
24402;DHT22;12539;48.808;11.292;2023-04-15T01:39:29;8.50;99.90
24402;DHT22;12539;48.808;11.292;2023-04-15T01:41:55;8.40;99.90
24402;DHT22;12539;48.808;11.292;2023-04-15T01:44:21;8.40;99.90
24402;DHT22;12539;48.808;11.292;2023-04-15T01:46:47;8.40;99.90
24402;DHT22;12539;48.808;11.292;2023-04-15T01:49:13;8.40;99.90
24402;DHT22;12539;48.808;11.292;2023-04-15T01:51:38;8.40;99.90
24402;DHT22;12539;48.808;11.292;2023-04-15T01:54:04;8.40;99.90
24402;DHT22;12539;48.808;11.292;2023-04-15T01:56:32;8.40;99.90
24402;DHT22;12539;48.808;11.292;2023-04-15T01:58:57;8.40;99.90
24402;DHT22;12539;48.808;11.292;2023-04-15T02:01:23;8.40;99.90
24402;DHT22;12539;48.808;11.292;2023-04-15T02:03:49;8.40;99.90
24402;DHT22;12539;48.808;11.292;2023-04-15T02:06:15;8.40;99.90
24402;DHT22;12539;48.808;11.292;2023-04-15T02:08:40;8.40;99.90
24402;DHT22;12539;48.808;11.292;2023-04-15T02:11:06;8.40;99.90
24402;DHT22;12539;48.808;11.292;2023-04-15T02:13:31;8.40;99.90
24402;DHT22;12539;48.808;11.292;2023-04-15T02:15:58;8.30;99.90
24402;DHT22;12539;48.808;11.292;2023-04-15T02:18:24;8.20;99.90
24402;DHT22;12539;48.808;11.292;2023-04-15T02:20:51;8.20;99.90
24402;DHT22;12539;48.808;11.292;2023-04-15T02:23:16;8.20;99.90
24402;DHT22;12539;48.808;11.292;2023-04-15T02:25:42;8.30;99.90
24402;DHT22;12539;48.808;11.292;2023-04-15T02:28:08;8.20;99.90
24402;DHT22;12539;48.808;11.292;2023-04-15T02:30:33;8.20;99.90
24402;DHT22;12539;48.808;11.292;2023-04-15T02:33:00;8.20;99.90
24402;DHT22;12539;48.808;11.292;2023-04-15T02:35:25;8.20;99.90
24402;DHT22;12539;48.808;11.292;2023-04-15T02:37:51;8.20;99.90
24402;DHT22;12539;48.808;11.292;2023-04-15T02:40:17;8.20;99.90
24402;DHT22;12539;48.808;11.292;2023-04-15T02:42:43;8.20;99.90
24402;DHT22;12539;48.808;11.292;2023-04-15T02:45:09;8.20;99.90
24402;DHT22;12539;48.808;11.292;2023-04-15T02:47:36;8.20;99.90
24402;DHT22;12539;48.808;11.292;2023-04-15T02:50:06;8.20;99.90
24402;DHT22;12539;48.808;11.292;2023-04-15T02:52:32;8.20;99.90
24402;DHT22;12539;48.808;11.292;2023-04-15T02:54:58;8.10;99.90
24402;DHT22;12539;48.808;11.292;2023-04-15T02:57:27;8.10;99.90
24402;DHT22;12539;48.808;11.292;2023-04-15T02:59:54;8.00;99.90
24402;DHT22;12539;48.808;11.292;2023-04-15T03:02:19;8.00;99.90
24402;DHT22;12539;48.808;11.292;2023-04-15T03:04:45;7.90;99.90
24402;DHT22;12539;48.808;11.292;2023-04-15T03:07:30;7.80;99.90
24402;DHT22;12539;48.808;11.292;2023-04-15T03:09:56;7.80;99.90
24402;DHT22;12539;48.808;11.292;2023-04-15T03:12:22;7.70;99.90
24402;DHT22;12539;48.808;11.292;2023-04-15T03:14:47;7.70;99.90
24402;DHT22;12539;48.808;11.292;2023-04-15T03:17:13;7.70;99.90
24402;DHT22;12539;48.808;11.292;2023-04-15T03:19:39;7.80;99.90
24402;DHT22;12539;48.808;11.292;2023-04-15T03:22:04;7.70;99.90
24402;DHT22;12539;48.808;11.292;2023-04-15T03:24:30;7.80;99.90
24402;DHT22;12539;48.808;11.292;2023-04-15T03:26:56;7.70;99.90
24402;DHT22;12539;48.808;11.292;2023-04-15T03:29:22;7.60;99.90
24402;DHT22;12539;48.808;11.292;2023-04-15T03:31:48;7.60;99.90
24402;DHT22;12539;48.808;11.292;2023-04-15T03:34:14;7.50;99.90
24402;DHT22;12539;48.808;11.292;2023-04-15T03:36:40;7.50;99.90
24402;DHT22;12539;48.808;11.292;2023-04-15T03:39:06;7.60;99.90
24402;DHT22;12539;48.808;11.292;2023-04-15T03:41:31;7.60;99.90
24402;DHT22;12539;48.808;11.292;2023-04-15T03:43:57;7.50;99.90
24402;DHT22;12539;48.808;11.292;2023-04-15T03:46:23;7.50;99.90
24402;DHT22;12539;48.808;11.292;2023-04-15T03:48:48;7.40;99.90
24402;DHT22;12539;48.808;11.292;2023-04-15T03:51:14;7.40;99.90
24402;DHT22;12539;48.808;11.292;2023-04-15T03:53:40;7.50;99.90
24402;DHT22;12539;48.808;11.292;2023-04-15T03:56:05;7.50;99.90
24402;DHT22;12539;48.808;11.292;2023-04-15T03:58:31;7.50;99.90
24402;DHT22;12539;48.808;11.292;2023-04-15T04:00:57;7.50;99.90
24402;DHT22;12539;48.808;11.292;2023-04-15T04:03:22;7.60;99.90
24402;DHT22;12539;48.808;11.292;2023-04-15T04:05:48;7.50;99.90
24402;DHT22;12539;48.808;11.292;2023-04-15T04:08:14;7.40;99.90
24402;DHT22;12539;48.808;11.292;2023-04-15T04:10:40;7.40;99.90
24402;DHT22;12539;48.808;11.292;2023-04-15T04:13:06;7.40;99.90
24402;DHT22;12539;48.808;11.292;2023-04-15T04:15:32;7.50;99.90
24402;DHT22;12539;48.808;11.292;2023-04-15T04:17:57;7.50;99.90
24402;DHT22;12539;48.808;11.292;2023-04-15T04:20:23;7.40;99.90
24402;DHT22;12539;48.808;11.292;2023-04-15T04:22:49;7.50;99.90
24402;DHT22;12539;48.808;11.292;2023-04-15T04:25:15;7.50;99.90
24402;DHT22;12539;48.808;11.292;2023-04-15T04:27:41;7.50;99.90
24402;DHT22;12539;48.808;11.292;2023-04-15T04:30:07;7.50;99.90
24402;DHT22;12539;48.808;11.292;2023-04-15T04:32:33;7.50;99.90
24402;DHT22;12539;48.808;11.292;2023-04-15T04:34:59;7.50;99.90
24402;DHT22;12539;48.808;11.292;2023-04-15T04:37:24;7.60;99.90
24402;DHT22;12539;48.808;11.292;2023-04-15T04:39:50;7.60;99.90
24402;DHT22;12539;48.808;11.292;2023-04-15T04:42:16;7.60;99.90
24402;DHT22;12539;48.808;11.292;2023-04-15T04:44:42;7.60;99.90
24402;DHT22;12539;48.808;11.292;2023-04-15T04:47:07;7.60;99.90
24402;DHT22;12539;48.808;11.292;2023-04-15T04:49:33;7.70;99.90
24402;DHT22;12539;48.808;11.292;2023-04-15T04:51:59;7.70;99.90
24402;DHT22;12539;48.808;11.292;2023-04-15T04:54:24;7.80;99.90
24402;DHT22;12539;48.808;11.292;2023-04-15T04:56:52;7.90;99.90
24402;DHT22;12539;48.808;11.292;2023-04-15T04:59:18;8.00;99.90
24402;DHT22;12539;48.808;11.292;2023-04-15T05:01:43;7.90;99.90
24402;DHT22;12539;48.808;11.292;2023-04-15T05:04:09;7.90;99.90
24402;DHT22;12539;48.808;11.292;2023-04-15T05:06:35;7.90;99.90
24402;DHT22;12539;48.808;11.292;2023-04-15T05:09:01;7.90;99.90
24402;DHT22;12539;48.808;11.292;2023-04-15T05:11:28;8.00;99.90
24402;DHT22;12539;48.808;11.292;2023-04-15T05:13:53;8.00;99.90
24402;DHT22;12539;48.808;11.292;2023-04-15T05:16:19;8.10;99.90
24402;DHT22;12539;48.808;11.292;2023-04-15T05:18:45;8.20;99.90
24402;DHT22;12539;48.808;11.292;2023-04-15T05:21:11;8.20;99.90
24402;DHT22;12539;48.808;11.292;2023-04-15T05:23:37;8.20;99.90
24402;DHT22;12539;48.808;11.292;2023-04-15T05:26:03;8.20;99.90
24402;DHT22;12539;48.808;11.292;2023-04-15T05:28:28;8.20;99.90
24402;DHT22;12539;48.808;11.292;2023-04-15T05:30:54;8.30;99.90
24402;DHT22;12539;48.808;11.292;2023-04-15T05:33:20;8.30;99.90
24402;DHT22;12539;48.808;11.292;2023-04-15T05:35:46;8.40;99.90
24402;DHT22;12539;48.808;11.292;2023-04-15T05:38:12;8.50;99.90
24402;DHT22;12539;48.808;11.292;2023-04-15T05:40:37;8.50;99.90
24402;DHT22;12539;48.808;11.292;2023-04-15T05:43:03;8.50;99.90
24402;DHT22;12539;48.808;11.292;2023-04-15T05:45:31;8.50;99.90
24402;DHT22;12539;48.808;11.292;2023-04-15T05:47:57;8.50;99.90
24402;DHT22;12539;48.808;11.292;2023-04-15T05:50:23;8.50;99.90
24402;DHT22;12539;48.808;11.292;2023-04-15T05:52:48;8.60;99.90
24402;DHT22;12539;48.808;11.292;2023-04-15T05:55:14;8.60;99.90
24402;DHT22;12539;48.808;11.292;2023-04-15T05:57:40;8.60;99.90
24402;DHT22;12539;48.808;11.292;2023-04-15T06:03:28;8.60;99.90
24402;DHT22;12539;48.808;11.292;2023-04-15T06:05:53;8.60;99.90
24402;DHT22;12539;48.808;11.292;2023-04-15T06:08:19;8.50;99.90
24402;DHT22;12539;48.808;11.292;2023-04-15T06:10:46;8.40;99.90
24402;DHT22;12539;48.808;11.292;2023-04-15T06:13:11;8.40;99.90
24402;DHT22;12539;48.808;11.292;2023-04-15T06:15:38;8.30;99.90
24402;DHT22;12539;48.808;11.292;2023-04-15T06:18:03;8.30;99.90
24402;DHT22;12539;48.808;11.292;2023-04-15T06:20:29;8.40;99.90
24402;DHT22;12539;48.808;11.292;2023-04-15T06:22:56;8.40;99.90
24402;DHT22;12539;48.808;11.292;2023-04-15T06:25:21;8.40;99.90
24402;DHT22;12539;48.808;11.292;2023-04-15T06:27:47;8.40;99.90
24402;DHT22;12539;48.808;11.292;2023-04-15T06:30:13;8.50;99.90
24402;DHT22;12539;48.808;11.292;2023-04-15T06:32:38;8.60;99.90
24402;DHT22;12539;48.808;11.292;2023-04-15T06:35:04;8.70;99.90
24402;DHT22;12539;48.808;11.292;2023-04-15T06:37:30;8.90;99.90
24402;DHT22;12539;48.808;11.292;2023-04-15T06:39:57;9.10;99.90
24402;DHT22;12539;48.808;11.292;2023-04-15T06:42:22;9.20;99.90
24402;DHT22;12539;48.808;11.292;2023-04-15T06:44:48;9.40;99.90
24402;DHT22;12539;48.808;11.292;2023-04-15T06:47:14;9.50;99.90
24402;DHT22;12539;48.808;11.292;2023-04-15T06:49:40;9.60;99.90
24402;DHT22;12539;48.808;11.292;2023-04-15T06:52:07;9.60;99.90
24402;DHT22;12539;48.808;11.292;2023-04-15T06:54:34;9.70;99.90
24402;DHT22;12539;48.808;11.292;2023-04-15T06:57:00;9.80;99.90
24402;DHT22;12539;48.808;11.292;2023-04-15T06:59:25;9.90;99.90
24402;DHT22;12539;48.808;11.292;2023-04-15T07:01:51;10.00;99.90
24402;DHT22;12539;48.808;11.292;2023-04-15T07:04:17;10.10;99.90
24402;DHT22;12539;48.808;11.292;2023-04-15T07:06:43;10.30;99.90
24402;DHT22;12539;48.808;11.292;2023-04-15T07:09:09;10.40;99.90
24402;DHT22;12539;48.808;11.292;2023-04-15T07:11:35;10.40;99.90
24402;DHT22;12539;48.808;11.292;2023-04-15T07:14:01;10.40;99.90
24402;DHT22;12539;48.808;11.292;2023-04-15T07:16:26;10.40;99.10
24402;DHT22;12539;48.808;11.292;2023-04-15T07:18:52;10.20;98.80
24402;DHT22;12539;48.808;11.292;2023-04-15T07:21:18;10.20;99.30
24402;DHT22;12539;48.808;11.292;2023-04-15T07:23:44;10.20;98.90
24402;DHT22;12539;48.808;11.292;2023-04-15T07:26:09;10.20;99.60
24402;DHT22;12539;48.808;11.292;2023-04-15T07:28:35;10.20;99.90
24402;DHT22;12539;48.808;11.292;2023-04-15T07:31:01;10.20;99.90
24402;DHT22;12539;48.808;11.292;2023-04-15T07:33:27;10.20;98.40
24402;DHT22;12539;48.808;11.292;2023-04-15T07:35:52;10.10;98.30
24402;DHT22;12539;48.808;11.292;2023-04-15T07:38:18;10.00;97.90
24402;DHT22;12539;48.808;11.292;2023-04-15T07:40:45;10.00;98.70
24402;DHT22;12539;48.808;11.292;2023-04-15T07:43:11;10.00;98.60
24402;DHT22;12539;48.808;11.292;2023-04-15T07:45:37;10.00;99.00
24402;DHT22;12539;48.808;11.292;2023-04-15T07:48:03;10.00;99.60
24402;DHT22;12539;48.808;11.292;2023-04-15T07:50:30;10.10;99.80
24402;DHT22;12539;48.808;11.292;2023-04-15T07:52:55;10.20;99.70
24402;DHT22;12539;48.808;11.292;2023-04-15T07:55:22;10.20;98.80
24402;DHT22;12539;48.808;11.292;2023-04-15T07:57:48;10.20;98.60
24402;DHT22;12539;48.808;11.292;2023-04-15T08:00:30;10.10;98.40
24402;DHT22;12539;48.808;11.292;2023-04-15T08:02:56;10.20;99.10
24402;DHT22;12539;48.808;11.292;2023-04-15T08:05:24;10.20;98.60
24402;DHT22;12539;48.808;11.292;2023-04-15T08:07:50;10.20;99.10
24402;DHT22;12539;48.808;11.292;2023-04-15T08:10:16;10.30;98.50
24402;DHT22;12539;48.808;11.292;2023-04-15T08:12:41;10.40;99.00
24402;DHT22;12539;48.808;11.292;2023-04-15T08:15:08;10.40;98.50
24402;DHT22;12539;48.808;11.292;2023-04-15T08:17:34;10.50;99.10
24402;DHT22;12539;48.808;11.292;2023-04-15T08:19:59;10.60;98.10
24402;DHT22;12539;48.808;11.292;2023-04-15T08:22:25;10.60;98.40
24402;DHT22;12539;48.808;11.292;2023-04-15T08:24:51;10.70;98.00
24402;DHT22;12539;48.808;11.292;2023-04-15T08:27:17;10.80;98.30
24402;DHT22;12539;48.808;11.292;2023-04-15T08:29:43;10.90;97.80
24402;DHT22;12539;48.808;11.292;2023-04-15T08:32:10;11.00;97.40
24402;DHT22;12539;48.808;11.292;2023-04-15T08:34:35;11.10;97.40
24402;DHT22;12539;48.808;11.292;2023-04-15T08:37:01;11.20;96.80
24402;DHT22;12539;48.808;11.292;2023-04-15T08:39:27;11.20;96.70
24402;DHT22;12539;48.808;11.292;2023-04-15T08:44:28;11.30;95.60
24402;DHT22;12539;48.808;11.292;2023-04-15T08:46:55;11.30;95.30
24402;DHT22;12539;48.808;11.292;2023-04-15T08:49:22;11.30;94.80
24402;DHT22;12539;48.808;11.292;2023-04-15T08:51:50;11.30;94.30
24402;DHT22;12539;48.808;11.292;2023-04-15T08:54:15;11.20;93.80
24402;DHT22;12539;48.808;11.292;2023-04-15T08:56:41;11.20;93.50
24402;DHT22;12539;48.808;11.292;2023-04-15T08:59:07;11.20;93.90
24402;DHT22;12539;48.808;11.292;2023-04-15T09:01:34;11.30;92.80
24402;DHT22;12539;48.808;11.292;2023-04-15T09:04:02;11.30;91.90
24402;DHT22;12539;48.808;11.292;2023-04-15T09:06:28;11.30;92.20
24402;DHT22;12539;48.808;11.292;2023-04-15T09:08:54;11.40;92.10
24402;DHT22;12539;48.808;11.292;2023-04-15T09:11:21;11.60;92.10
24402;DHT22;12539;48.808;11.292;2023-04-15T09:13:47;11.80;92.70
24402;DHT22;12539;48.808;11.292;2023-04-15T09:16:13;12.10;92.00
24402;DHT22;12539;48.808;11.292;2023-04-15T09:18:40;12.50;91.50
24402;DHT22;12539;48.808;11.292;2023-04-15T09:21:11;12.80;91.30
24402;DHT22;12539;48.808;11.292;2023-04-15T09:23:39;13.10;90.80
24402;DHT22;12539;48.808;11.292;2023-04-15T09:26:05;13.40;90.30
24402;DHT22;12539;48.808;11.292;2023-04-15T09:28:31;13.50;87.10
24402;DHT22;12539;48.808;11.292;2023-04-15T09:30:58;13.70;85.50
24402;DHT22;12539;48.808;11.292;2023-04-15T09:33:25;13.70;84.00
24402;DHT22;12539;48.808;11.292;2023-04-15T09:35:59;13.80;80.10
24402;DHT22;12539;48.808;11.292;2023-04-15T09:38:26;13.80;81.00
24402;DHT22;12539;48.808;11.292;2023-04-15T09:40:51;13.80;81.80
24402;DHT22;12539;48.808;11.292;2023-04-15T09:43:17;13.90;81.90
24402;DHT22;12539;48.808;11.292;2023-04-15T09:45:51;13.90;81.70
24402;DHT22;12539;48.808;11.292;2023-04-15T09:48:22;13.90;78.40
24402;DHT22;12539;48.808;11.292;2023-04-15T09:50:50;13.70;78.30
24402;DHT22;12539;48.808;11.292;2023-04-15T09:53:22;13.60;76.50
24402;DHT22;12539;48.808;11.292;2023-04-15T09:55:50;13.40;78.20
24402;DHT22;12539;48.808;11.292;2023-04-15T09:58:27;13.20;78.20
24402;DHT22;12539;48.808;11.292;2023-04-15T10:00:55;13.00;78.10
24402;DHT22;12539;48.808;11.292;2023-04-15T10:03:26;12.90;80.10
24402;DHT22;12539;48.808;11.292;2023-04-15T10:05:52;12.90;79.50
24402;DHT22;12539;48.808;11.292;2023-04-15T10:08:23;12.90;79.10
24402;DHT22;12539;48.808;11.292;2023-04-15T10:10:50;12.90;78.50
24402;DHT22;12539;48.808;11.292;2023-04-15T10:13:25;12.90;79.50
24402;DHT22;12539;48.808;11.292;2023-04-15T10:16:13;12.90;78.10
24402;DHT22;12539;48.808;11.292;2023-04-15T10:18:43;12.90;78.10
24402;DHT22;12539;48.808;11.292;2023-04-15T10:21:10;12.90;78.50
24402;DHT22;12539;48.808;11.292;2023-04-15T10:23:38;12.90;76.90
24402;DHT22;12539;48.808;11.292;2023-04-15T10:26:05;12.80;75.50
24402;DHT22;12539;48.808;11.292;2023-04-15T10:28:31;12.70;76.30
24402;DHT22;12539;48.808;11.292;2023-04-15T10:30:57;12.60;76.50
24402;DHT22;12539;48.808;11.292;2023-04-15T10:33:24;12.60;76.90
24402;DHT22;12539;48.808;11.292;2023-04-15T10:35:52;12.60;77.10
24402;DHT22;12539;48.808;11.292;2023-04-15T10:38:42;12.60;77.70
24402;DHT22;12539;48.808;11.292;2023-04-15T10:41:25;12.60;77.40
24402;DHT22;12539;48.808;11.292;2023-04-15T10:44:10;12.50;77.20
24402;DHT22;12539;48.808;11.292;2023-04-15T10:46:37;12.50;77.40
24402;DHT22;12539;48.808;11.292;2023-04-15T10:49:14;12.40;78.00
24402;DHT22;12539;48.808;11.292;2023-04-15T10:51:45;12.40;78.00
24402;DHT22;12539;48.808;11.292;2023-04-15T10:54:15;12.40;77.80
24402;DHT22;12539;48.808;11.292;2023-04-15T10:56:43;12.30;77.50
24402;DHT22;12539;48.808;11.292;2023-04-15T10:59:09;12.30;77.00
24402;DHT22;12539;48.808;11.292;2023-04-15T11:01:55;12.20;76.80
24402;DHT22;12539;48.808;11.292;2023-04-15T11:04:50;12.10;75.60
24402;DHT22;12539;48.808;11.292;2023-04-15T11:07:37;12.10;76.80
24402;DHT22;12539;48.808;11.292;2023-04-15T11:12:38;12.20;78.20
24402;DHT22;12539;48.808;11.292;2023-04-15T11:17:50;12.60;79.80
24402;DHT22;12539;48.808;11.292;2023-04-15T11:20:16;12.70;78.50
24402;DHT22;12539;48.808;11.292;2023-04-15T11:22:53;12.70;78.60
24402;DHT22;12539;48.808;11.292;2023-04-15T11:25:27;12.70;77.40
24402;DHT22;12539;48.808;11.292;2023-04-15T11:27:53;12.60;78.40
24402;DHT22;12539;48.808;11.292;2023-04-15T11:30:21;12.60;79.10
24402;DHT22;12539;48.808;11.292;2023-04-15T11:32:51;12.50;79.60
24402;DHT22;12539;48.808;11.292;2023-04-15T11:35:18;12.50;80.20
24402;DHT22;12539;48.808;11.292;2023-04-15T11:37:45;12.50;80.60
24402;DHT22;12539;48.808;11.292;2023-04-15T11:40:11;12.60;79.60
24402;DHT22;12539;48.808;11.292;2023-04-15T11:42:38;12.60;78.60
24402;DHT22;12539;48.808;11.292;2023-04-15T11:45:14;12.50;77.80
24402;DHT22;12539;48.808;11.292;2023-04-15T11:47:43;12.40;76.70
24402;DHT22;12539;48.808;11.292;2023-04-15T11:50:19;12.10;77.70
24402;DHT22;12539;48.808;11.292;2023-04-15T11:52:59;12.00;79.00
24402;DHT22;12539;48.808;11.292;2023-04-15T11:55:26;11.90;80.60
24402;DHT22;12539;48.808;11.292;2023-04-15T11:58:07;11.90;81.70
24402;DHT22;12539;48.808;11.292;2023-04-15T12:00:34;12.00;82.80
24402;DHT22;12539;48.808;11.292;2023-04-15T12:03:19;12.00;83.10
24402;DHT22;12539;48.808;11.292;2023-04-15T12:06:21;12.10;83.70
24402;DHT22;12539;48.808;11.292;2023-04-15T12:08:51;12.00;83.70
24402;DHT22;12539;48.808;11.292;2023-04-15T12:11:40;11.90;84.20
24402;DHT22;12539;48.808;11.292;2023-04-15T12:14:10;11.70;84.90
24402;DHT22;12539;48.808;11.292;2023-04-15T12:16:47;11.60;86.80
24402;DHT22;12539;48.808;11.292;2023-04-15T12:19:15;11.50;87.00
24402;DHT22;12539;48.808;11.292;2023-04-15T12:21:44;11.30;88.50
24402;DHT22;12539;48.808;11.292;2023-04-15T12:24:11;11.20;89.50
24402;DHT22;12539;48.808;11.292;2023-04-15T12:26:43;11.10;90.30
24402;DHT22;12539;48.808;11.292;2023-04-15T12:29:11;11.10;90.90
24402;DHT22;12539;48.808;11.292;2023-04-15T12:31:53;11.00;91.40
24402;DHT22;12539;48.808;11.292;2023-04-15T12:34:32;10.90;91.90
24402;DHT22;12539;48.808;11.292;2023-04-15T12:37:00;10.80;92.20
24402;DHT22;12539;48.808;11.292;2023-04-15T12:39:28;10.60;92.70
24402;DHT22;12539;48.808;11.292;2023-04-15T12:41:54;10.50;93.00
24402;DHT22;12539;48.808;11.292;2023-04-15T12:44:22;10.40;93.80
24402;DHT22;12539;48.808;11.292;2023-04-15T12:46:49;10.50;94.90
24402;DHT22;12539;48.808;11.292;2023-04-15T12:49:15;10.50;95.10
24402;DHT22;12539;48.808;11.292;2023-04-15T12:51:41;10.40;95.00
24402;DHT22;12539;48.808;11.292;2023-04-15T12:54:07;10.20;95.00
24402;DHT22;12539;48.808;11.292;2023-04-15T12:56:33;10.10;95.40
24402;DHT22;12539;48.808;11.292;2023-04-15T12:58:58;10.00;96.70
24402;DHT22;12539;48.808;11.292;2023-04-15T13:01:24;10.00;96.60
24402;DHT22;12539;48.808;11.292;2023-04-15T13:03:50;10.00;96.40
24402;DHT22;12539;48.808;11.292;2023-04-15T13:06:18;10.00;97.40
24402;DHT22;12539;48.808;11.292;2023-04-15T13:08:44;10.10;98.10
24402;DHT22;12539;48.808;11.292;2023-04-15T13:11:10;10.10;97.90
24402;DHT22;12539;48.808;11.292;2023-04-15T13:13:36;10.10;96.60
24402;DHT22;12539;48.808;11.292;2023-04-15T13:16:01;9.90;96.40
24402;DHT22;12539;48.808;11.292;2023-04-15T13:18:27;9.80;97.00
24402;DHT22;12539;48.808;11.292;2023-04-15T13:20:53;9.80;97.90
24402;DHT22;12539;48.808;11.292;2023-04-15T13:23:20;9.90;97.50
24402;DHT22;12539;48.808;11.292;2023-04-15T13:25:45;9.90;98.50
24402;DHT22;12539;48.808;11.292;2023-04-15T13:28:11;10.00;98.50
24402;DHT22;12539;48.808;11.292;2023-04-15T13:30:37;10.10;98.80
24402;DHT22;12539;48.808;11.292;2023-04-15T13:33:04;10.20;98.70
24402;DHT22;12539;48.808;11.292;2023-04-15T13:35:31;10.20;98.20
24402;DHT22;12539;48.808;11.292;2023-04-15T13:37:57;10.30;97.70
24402;DHT22;12539;48.808;11.292;2023-04-15T13:40:22;10.20;97.20
24402;DHT22;12539;48.808;11.292;2023-04-15T13:42:48;10.20;97.80
24402;DHT22;12539;48.808;11.292;2023-04-15T13:45:14;10.20;98.00
24402;DHT22;12539;48.808;11.292;2023-04-15T13:47:40;10.20;97.60
24402;DHT22;12539;48.808;11.292;2023-04-15T13:50:06;10.20;98.10
24402;DHT22;12539;48.808;11.292;2023-04-15T13:52:32;10.20;97.60
24402;DHT22;12539;48.808;11.292;2023-04-15T13:54:58;10.20;98.40
24402;DHT22;12539;48.808;11.292;2023-04-15T13:57:24;10.20;97.90
24402;DHT22;12539;48.808;11.292;2023-04-15T13:59:50;10.10;97.70
24402;DHT22;12539;48.808;11.292;2023-04-15T14:02:15;10.10;97.70
24402;DHT22;12539;48.808;11.292;2023-04-15T14:04:41;10.00;97.90
24402;DHT22;12539;48.808;11.292;2023-04-15T14:07:07;10.00;98.20
24402;DHT22;12539;48.808;11.292;2023-04-15T14:09:32;10.00;98.30
24402;DHT22;12539;48.808;11.292;2023-04-15T14:11:59;10.00;98.40
24402;DHT22;12539;48.808;11.292;2023-04-15T14:14:25;10.10;98.00
24402;DHT22;12539;48.808;11.292;2023-04-15T14:16:51;10.00;98.20
24402;DHT22;12539;48.808;11.292;2023-04-15T14:19:17;10.00;98.50
24402;DHT22;12539;48.808;11.292;2023-04-15T14:21:42;10.00;97.80
24402;DHT22;12539;48.808;11.292;2023-04-15T14:24:08;10.00;97.40
24402;DHT22;12539;48.808;11.292;2023-04-15T14:26:34;9.90;97.30
24402;DHT22;12539;48.808;11.292;2023-04-15T14:29:00;9.80;97.50
24402;DHT22;12539;48.808;11.292;2023-04-15T14:34:14;9.90;98.90
24402;DHT22;12539;48.808;11.292;2023-04-15T14:36:40;10.00;98.80
24402;DHT22;12539;48.808;11.292;2023-04-15T14:39:06;10.00;99.10
24402;DHT22;12539;48.808;11.292;2023-04-15T14:41:32;10.10;98.60
24402;DHT22;12539;48.808;11.292;2023-04-15T14:43:58;10.10;99.20
24402;DHT22;12539;48.808;11.292;2023-04-15T14:46:24;10.10;98.90
24402;DHT22;12539;48.808;11.292;2023-04-15T14:48:50;10.20;99.40
24402;DHT22;12539;48.808;11.292;2023-04-15T14:51:16;10.20;99.10
24402;DHT22;12539;48.808;11.292;2023-04-15T14:53:42;10.30;99.60
24402;DHT22;12539;48.808;11.292;2023-04-15T14:56:08;10.30;99.10
24402;DHT22;12539;48.808;11.292;2023-04-15T14:58:34;10.30;99.10
24402;DHT22;12539;48.808;11.292;2023-04-15T15:01:00;10.20;98.50
24402;DHT22;12539;48.808;11.292;2023-04-15T15:03:27;10.20;98.70
24402;DHT22;12539;48.808;11.292;2023-04-15T15:05:53;10.10;98.60
24402;DHT22;12539;48.808;11.292;2023-04-15T15:08:19;10.10;98.80
24402;DHT22;12539;48.808;11.292;2023-04-15T15:10:45;10.20;99.40
24402;DHT22;12539;48.808;11.292;2023-04-15T15:13:11;10.20;99.10
24402;DHT22;12539;48.808;11.292;2023-04-15T15:15:37;10.30;99.20
24402;DHT22;12539;48.808;11.292;2023-04-15T15:18:03;10.30;99.40
24402;DHT22;12539;48.808;11.292;2023-04-15T15:20:29;10.30;99.10
24402;DHT22;12539;48.808;11.292;2023-04-15T15:22:55;10.30;98.50
24402;DHT22;12539;48.808;11.292;2023-04-15T15:25:21;10.20;98.30
24402;DHT22;12539;48.808;11.292;2023-04-15T15:27:47;10.10;98.10
24402;DHT22;12539;48.808;11.292;2023-04-15T15:30:13;10.00;98.30
24402;DHT22;12539;48.808;11.292;2023-04-15T15:32:40;10.00;97.90
24402;DHT22;12539;48.808;11.292;2023-04-15T15:35:07;9.90;98.70
24402;DHT22;12539;48.808;11.292;2023-04-15T15:37:34;9.90;98.90